Time;durP1;ratioP1;P1;durP2;ratioP2;P2;SDS_P1;SDS_P2;PMS_P1;PMS_P2;Temp;Humidity;BMP_temperature;BMP_pressure;BME280_temperature;BME280_humidity;BME280_pressure;Samples;Min_cycle;Max_cycle;Signal;HPM_P1;HPM_P2
2022/02/05 00:01:52;;;;;;;33.08;26.02;;;;;;;21.03;28.18;94472.44;4953832;28;96896;-54
2022/02/05 00:04:18;;;;;;;32.80;25.27;;;;;;;21.06;28.15;94478.31;4953689;28;96968;-57
2022/02/05 00:06:51;;;;;;;30.27;23.58;;;;;;;21.13;28.21;94470.00;4952737;28;99429;-53
2022/02/05 00:09:38;;;;;;;33.85;23.48;;;;;;;20.97;28.55;94476.81;4950877;28;99259;-58
2022/02/05 00:12:20;;;;;;;29.67;22.65;;;;;;;21.26;28.04;94479.31;4953709;28;96986;-53
2022/02/05 00:41:53;;;;;;;25.92;19.00;;;;;;;20.47;28.18;94485.41;4953041;28;97055;-52
2022/02/05 00:44:19;;;;;;;26.88;19.27;;;;;;;20.46;27.99;94483.84;4953468;28;97118;-52
2022/02/05 00:46:46;;;;;;;26.05;20.33;;;;;;;20.78;28.02;94488.38;4953619;28;96941;-51
2022/02/05 00:49:12;;;;;;;24.38;18.80;;;;;;;20.87;27.37;94483.19;4952387;28;99465;-50
2022/02/05 00:51:52;;;;;;;26.88;18.60;;;;;;;20.91;26.96;94472.19;4953248;28;99487;-48
2022/02/05 00:54:21;;;;;;;26.50;18.33;;;;;;;20.80;27.04;94459.31;4953493;28;96916;-53
2022/02/05 00:59:17;;;;;;;26.05;18.67;;;;;;;21.03;26.71;94461.47;4952840;28;97825;-49
2022/02/05 01:01:43;;;;;;;21.17;16.23;;;;;;;20.92;26.82;94469.00;4953657;28;98053;-52
2022/02/05 01:04:08;;;;;;;25.33;17.42;;;;;;;20.94;26.70;94457.63;4953444;28;96736;-52
2022/02/05 01:06:34;;;;;;;26.23;17.55;;;;;;;20.97;26.67;94463.09;4953652;28;96902;-49
2022/02/05 01:09:03;;;;;;;24.17;17.52;;;;;;;20.95;26.46;94459.97;4952782;28;99565;-50
2022/02/05 01:11:29;;;;;;;27.67;19.48;;;;;;;21.05;27.51;94463.03;4982964;28;99297;-51
2022/02/05 01:13:57;;;;;;;29.45;19.98;;;;;;;21.23;26.76;94447.16;4953444;28;96830;-51
2022/02/05 01:16:35;;;;;;;24.60;19.75;;;;;;;21.30;26.25;94451.78;4953025;28;97078;-46
2022/02/05 01:19:01;;;;;;;27.35;19.45;;;;;;;21.32;26.11;94454.91;4953055;28;99116;-49
2022/02/05 01:24:01;;;;;;;27.05;19.30;;;;;;;21.16;27.73;94452.72;4953159;28;96721;-53
2022/02/05 01:26:36;;;;;;;28.27;19.75;;;;;;;21.31;27.50;94448.66;4953556;28;96704;-55
2022/02/05 01:29:08;;;;;;;23.63;17.77;;;;;;;21.10;27.92;94440.63;4953067;28;99523;-45
2022/02/05 01:31:42;;;;;;;25.20;18.43;;;;;;;21.26;27.52;94440.84;4952855;28;99544;-50
2022/02/05 01:53:02;;;;;;;25.58;17.08;;;;;;;21.25;27.03;94428.31;4952260;28;97749;-45
2022/02/05 01:58:12;;;;;;;30.63;25.70;;;;;;;21.12;27.24;94432.75;4951963;28;96899;-47
2022/02/05 02:19:03;;;;;;;28.60;23.13;;;;;;;20.49;26.94;94439.16;4937895;28;97055;-45
2022/02/05 02:24:13;;;;;;;25.90;20.10;;;;;;;20.25;27.83;94438.94;4947689;28;98097;-49
2022/02/05 02:27:03;;;;;;;26.70;20.65;;;;;;;20.24;27.32;94429.16;4936231;28;96670;-47
2022/02/05 02:29:43;;;;;;;25.75;19.63;;;;;;;20.54;26.97;94431.28;4932748;28;98618;-52
2022/02/05 02:32:09;;;;;;;24.83;19.20;;;;;;;20.54;26.91;94431.28;4941298;28;99256;-47
2022/02/05 02:34:40;;;;;;;42.75;23.77;;;;;;;20.82;28.48;94432.25;4935837;28;99625;-51
2022/02/05 02:37:10;;;;;;;35.93;25.13;;;;;;;20.87;29.97;94431.03;4934894;28;97024;-52
2022/02/05 02:39:49;;;;;;;42.35;28.48;;;;;;;21.01;30.95;94436.38;4936607;28;97579;-51
2022/02/05 02:42:15;;;;;;;41.13;31.48;;;;;;;21.07;29.50;94438.69;4941087;28;99514;-49
2022/02/05 02:44:41;;;;;;;47.13;35.33;;;;;;;21.05;33.41;94441.06;4955757;28;99507;-48
2022/02/05 02:47:06;;;;;;;41.95;33.15;;;;;;;21.12;32.83;94430.00;4955674;28;96695;-48
2022/02/05 02:57:30;;;;;;;44.35;35.88;;;;;;;20.85;32.19;94447.13;4952863;28;96691;-49
2022/02/05 03:00:00;;;;;;;43.25;34.58;;;;;;;20.93;31.81;94445.09;4950156;28;96901;-49
2022/02/05 03:02:27;;;;;;;41.42;34.60;;;;;;;21.04;30.46;94456.75;4955141;28;99581;-48
2022/02/05 03:04:55;;;;;;;37.33;32.55;;;;;;;21.09;30.16;94455.53;4949197;28;99426;-49
2022/02/05 03:07:22;;;;;;;40.92;33.65;;;;;;;21.08;29.95;94456.72;4955415;28;96828;-50
2022/02/05 03:09:47;;;;;;;39.47;32.03;;;;;;;21.08;30.25;94462.22;4953233;28;96842;-47
2022/02/05 03:12:13;;;;;;;36.53;31.02;;;;;;;21.05;30.44;94458.31;4955798;28;98048;-48
2022/02/05 03:14:39;;;;;;;35.67;30.30;;;;;;;20.94;30.34;94457.63;4953203;28;98073;-48
2022/02/05 03:17:15;;;;;;;37.13;30.17;;;;;;;21.03;30.11;94460.69;4939423;28;97142;-50
2022/02/05 03:19:47;;;;;;;31.13;27.75;;;;;;;20.99;29.83;94457.97;4936931;28;96820;-50
2022/02/05 03:22:22;;;;;;;31.50;27.57;;;;;;;20.95;29.78;94459.97;4953519;28;99692;-53
2022/02/05 03:24:48;;;;;;;32.33;27.35;;;;;;;20.90;29.61;94457.69;4953497;28;99627;-52
2022/02/05 03:27:16;;;;;;;31.15;26.65;;;;;;;20.94;30.03;94455.66;4942923;28;96781;-48
2022/02/05 03:29:44;;;;;;;30.38;25.38;;;;;;;20.86;29.59;94452.22;4952920;28;96907;-50
2022/02/05 03:32:10;;;;;;;33.15;24.55;;;;;;;20.91;29.55;94447.47;4953065;28;99530;-49
2022/02/05 03:34:36;;;;;;;30.58;24.55;;;;;;;20.91;29.02;94459.22;4953921;28;99642;-46
2022/02/05 03:37:02;;;;;;;28.25;22.88;;;;;;;20.88;29.56;94454.56;4951209;28;96916;-43
2022/02/05 03:39:27;;;;;;;29.85;26.08;;;;;;;20.93;28.95;94454.09;4947901;28;96883;-51
2022/02/05 03:41:53;;;;;;;31.63;25.00;;;;;;;20.77;29.29;94432.69;4942196;28;99335;-47
2022/02/05 03:44:18;;;;;;;28.95;23.08;;;;;;;20.91;29.02;94453.72;4944164;28;99352;-50
2022/02/05 03:46:43;;;;;;;27.70;21.77;;;;;;;20.90;28.93;94465.91;4944521;28;97131;-51
2022/02/05 03:49:11;;;;;;;26.02;21.58;;;;;;;20.88;28.86;94466.31;4951104;28;98651;-51
2022/02/05 03:51:37;;;;;;;26.75;21.13;;;;;;;20.87;28.74;94469.47;4944013;28;99719;-50
2022/02/05 03:54:03;;;;;;;26.25;21.60;;;;;;;20.83;28.78;94465.97;4946297;28;99269;-50
2022/02/05 03:56:29;;;;;;;23.73;19.63;;;;;;;20.84;28.70;94465.56;4950562;28;98124;-52
2022/02/05 03:58:54;;;;;;;21.80;19.00;;;;;;;20.87;28.63;94469.47;4942605;28;97118;-46
2022/02/05 04:01:20;;;;;;;23.83;19.08;;;;;;;20.85;28.70;94477.34;4954276;28;99078;-48
2022/02/05 04:03:45;;;;;;;23.70;19.08;;;;;;;20.84;28.55;94475.78;4954690;28;99517;-50
2022/02/05 04:06:10;;;;;;;24.00;18.23;;;;;;;20.79;28.52;94465.22;4949574;28;96654;-51
2022/02/05 04:08:36;;;;;;;23.38;17.55;;;;;;;20.80;28.54;94456.56;4972323;28;97034;-48
2022/02/05 04:11:10;;;;;;;21.80;17.48;;;;;;;20.76;28.41;94468.75;4952221;28;99291;-47
2022/02/05 04:16:23;;;;;;;24.65;20.08;;;;;;;20.84;28.28;94475.78;4938797;28;96759;-50
2022/02/05 04:18:50;;;;;;;23.23;19.73;;;;;;;20.78;28.28;94477.38;4948816;28;96972;-46
2022/02/05 04:21:15;;;;;;;23.98;19.08;;;;;;;20.81;28.21;94484.81;4952855;28;99345;-50
2022/02/05 04:23:41;;;;;;;24.90;17.90;;;;;;;20.77;28.41;94478.53;4952374;28;99402;-50
2022/02/05 04:26:06;;;;;;;23.55;18.40;;;;;;;20.78;28.20;94471.91;4953212;28;96754;-51
2022/02/05 04:28:32;;;;;;;20.15;16.63;;;;;;;20.72;28.26;94480.53;4951227;28;98208;-48
2022/02/05 04:30:57;;;;;;;22.83;17.70;;;;;;;20.64;28.18;94473.53;4933711;28;98276;-46
2022/02/05 04:33:23;;;;;;;21.35;17.13;;;;;;;20.70;28.21;94482.91;4952816;28;98817;-44
2022/02/05 04:35:48;;;;;;;22.35;16.67;;;;;;;20.74;28.17;94485.59;4951843;28;96755;-48
2022/02/05 04:38:15;;;;;;;21.35;16.67;;;;;;;20.72;28.17;94488.75;4934277;28;96941;-45
2022/02/05 04:40:48;;;;;;;22.23;16.15;;;;;;;20.73;28.06;94490.31;4944047;28;99417;-47
2022/02/05 04:44:08;;;;;;;24.27;17.10;;;;;;;20.70;27.98;94485.66;4937662;28;99462;-47
2022/02/05 04:56:24;;;;;;;20.75;16.13;;;;;;;20.64;27.92;94484.50;4949777;28;96779;-46
2022/02/05 04:59:25;;;;;;;20.17;14.95;;;;;;;20.63;28.01;94480.22;4947732;28;96891;-47
2022/02/05 05:21:51;;;;;;;17.83;14.20;;;;;;;20.60;28.08;94483.75;4933518;28;98978;-50
2022/02/05 05:24:16;;;;;;;20.25;14.30;;;;;;;20.62;27.87;94486.88;4933732;28;98892;-49
2022/02/05 05:26:42;;;;;;;18.45;14.43;;;;;;;20.59;27.83;94493.16;4940886;28;96750;-46
2022/02/05 05:29:07;;;;;;;18.85;13.90;;;;;;;20.57;27.78;94490.03;4948270;28;96959;-47
2022/02/05 05:31:33;;;;;;;20.58;14.18;;;;;;;20.59;27.83;94495.91;4934023;28;98005;-50
2022/02/05 05:33:58;;;;;;;17.83;12.80;;;;;;;20.60;27.58;94486.50;4933465;28;99369;-51
2022/02/05 05:36:23;;;;;;;20.00;13.95;;;;;;;20.61;27.72;94484.56;4934755;28;97439;-45
2022/02/05 05:38:49;;;;;;;19.08;13.23;;;;;;;20.59;27.77;94482.19;4948956;28;97411;-49
2022/02/05 05:41:14;;;;;;;18.55;13.80;;;;;;;20.60;27.73;94494.72;4933447;28;99648;-46
2022/02/05 05:46:18;;;;;;;19.50;13.70;;;;;;;20.57;27.70;94493.59;4931826;28;96665;-47
2022/02/05 05:51:15;;;;;;;18.65;12.75;;;;;;;20.55;27.67;94500.66;4933127;28;97854;-46
2022/02/05 05:53:40;;;;;;;20.50;13.60;;;;;;;20.55;27.73;94498.69;4933546;28;99252;-48
2022/02/05 05:56:06;;;;;;;21.15;13.73;;;;;;;20.53;27.66;94501.06;4933534;28;96949;-50
2022/02/05 05:58:31;;;;;;;19.38;13.18;;;;;;;20.55;27.56;94514.38;4934697;28;96932;-50
2022/02/05 06:00:57;;;;;;;19.08;12.88;;;;;;;20.53;27.50;94505.75;4951604;28;99758;-48
2022/02/05 06:03:22;;;;;;;20.00;13.90;;;;;;;20.56;27.42;94510.44;4935362;28;99376;-50
2022/02/05 06:05:47;;;;;;;19.52;13.80;;;;;;;20.56;27.51;94499.47;4933375;28;97438;-44
2022/02/05 06:08:14;;;;;;;17.63;13.00;;;;;;;20.51;27.58;94502.63;4935641;28;96885;-46
2022/02/05 06:10:40;;;;;;;19.83;13.25;;;;;;;20.52;27.58;94505.00;4952217;28;99790;-49
2022/02/05 06:13:05;;;;;;;19.70;12.77;;;;;;;20.56;27.54;94513.19;4954159;28;99157;-45
2022/02/05 06:15:31;;;;;;;19.02;12.95;;;;;;;20.55;27.38;94511.63;4956304;28;96729;-51
2022/02/05 06:17:57;;;;;;;17.20;12.60;;;;;;;20.50;27.52;94512.03;4943726;28;96998;-43
2022/02/05 06:20:22;;;;;;;17.80;11.75;;;;;;;20.41;27.42;94501.53;4949511;28;99317;-45
2022/02/05 06:22:48;;;;;;;17.67;12.38;;;;;;;20.50;27.62;94525.75;4955395;28;99468;-48
2022/02/05 06:25:13;;;;;;;16.65;11.90;;;;;;;20.44;27.72;94517.94;4941919;28;96738;-45
2022/02/05 06:27:39;;;;;;;17.73;12.90;;;;;;;20.54;27.58;94524.56;4946720;28;97569;-44
2022/02/05 06:30:05;;;;;;;19.35;14.27;;;;;;;20.52;27.66;94531.63;4944388;28;99727;-45
2022/02/05 06:32:30;;;;;;;17.58;12.65;;;;;;;20.56;27.65;94529.66;4950150;28;99956;-44
2022/02/05 06:34:56;;;;;;;18.95;13.52;;;;;;;20.57;27.44;94536.69;4953768;28;96627;-46
2022/02/05 06:37:21;;;;;;;17.50;12.60;;;;;;;20.54;27.61;94534.75;4947305;28;97077;-44
2022/02/05 06:39:46;;;;;;;17.67;12.77;;;;;;;20.58;27.49;94532.78;4943778;28;99376;-47
2022/02/05 06:42:12;;;;;;;20.48;13.73;;;;;;;20.59;27.38;94542.56;4940499;28;99195;-42
2022/02/05 06:44:37;;;;;;;19.80;13.65;;;;;;;20.59;27.41;94537.06;4936391;28;96698;-50
2022/02/05 06:47:03;;;;;;;18.92;12.85;;;;;;;20.57;27.29;94539.44;4941347;28;96916;-47
2022/02/05 06:49:30;;;;;;;20.38;14.60;;;;;;;20.57;27.38;94528.47;4936030;28;99905;-46
2022/02/05 06:51:56;;;;;;;17.58;13.75;;;;;;;20.61;27.32;94528.44;4936475;28;97747;-48
2022/02/05 06:54:21;;;;;;;19.95;14.57;;;;;;;20.58;27.21;94530.81;4940906;28;96881;-45
2022/02/05 06:56:47;;;;;;;20.92;14.10;;;;;;;20.59;27.13;94545.31;4947328;28;96848;-47
2022/02/05 06:59:12;;;;;;;21.35;15.68;;;;;;;20.57;27.25;94539.44;4954619;28;99443;-46
2022/02/05 07:01:38;;;;;;;19.75;14.23;;;;;;;20.57;27.15;94531.22;4942894;28;99216;-42
2022/02/05 07:04:05;;;;;;;20.48;14.88;;;;;;;20.61;27.04;94542.94;4936182;28;96609;-42
2022/02/05 07:06:31;;;;;;;21.42;15.35;;;;;;;20.61;27.25;94537.44;4942600;28;96960;-46
2022/02/05 07:08:56;;;;;;;22.33;16.17;;;;;;;20.63;27.12;94542.53;4953388;28;99546;-46
2022/02/05 07:11:22;;;;;;;21.55;15.27;;;;;;;20.61;27.07;94545.69;4955127;28;99099;-44
2022/02/05 07:13:49;;;;;;;22.25;16.15;;;;;;;20.57;27.09;94539.44;4955249;28;96844;-49
2022/02/05 07:16:24;;;;;;;21.90;15.65;;;;;;;20.65;27.16;94551.94;4941742;28;96881;-42
2022/02/05 07:22:00;;;;;;;23.27;16.70;;;;;;;20.61;26.94;94542.94;4941853;28;97862;-48
2022/02/05 07:29:17;;;;;;;23.52;17.23;;;;;;;20.63;27.10;94546.06;4934620;28;97172;-48
2022/02/05 07:31:55;;;;;;;23.75;17.13;;;;;;;20.59;26.92;94537.06;4954112;28;99556;-46
2022/02/05 07:34:25;;;;;;;22.30;16.45;;;;;;;20.61;26.86;94544.91;4955015;28;96813;-42
2022/02/05 07:36:51;;;;;;;19.95;15.32;;;;;;;20.60;26.90;94544.13;4952597;28;96957;-47
2022/02/05 07:39:17;;;;;;;22.58;15.95;;;;;;;20.62;26.92;94555.47;4937519;28;99198;-49
2022/02/05 07:41:42;;;;;;;24.10;15.82;;;;;;;20.57;26.86;94550.41;4953612;28;98254;-47
2022/02/05 07:44:11;;;;;;;22.08;15.93;;;;;;;20.58;27.04;94554.72;4955308;28;96668;-47
2022/02/05 07:46:36;;;;;;;21.38;15.10;;;;;;;20.51;27.58;94563.00;4948873;28;96924;-47
2022/02/05 07:49:02;;;;;;;21.70;15.30;;;;;;;20.56;27.29;94565.31;4934747;28;98351;-51
2022/02/05 07:51:30;;;;;;;21.60;14.63;;;;;;;20.54;27.29;94567.69;4943833;28;98881;-48
2022/02/05 07:53:56;;;;;;;19.58;14.98;;;;;;;20.55;27.35;94559.06;4945969;28;96792;-49
2022/02/05 07:56:21;;;;;;;21.73;14.75;;;;;;;20.64;27.40;94561.34;4955485;28;96891;-50
2022/02/05 07:58:47;;;;;;;19.52;13.40;;;;;;;20.67;27.39;94566.03;4938089;28;99517;-49
2022/02/05 08:01:13;;;;;;;19.55;14.63;;;;;;;20.51;27.54;94568.47;4949817;28;99653;-47
2022/02/05 08:03:38;;;;;;;19.92;14.82;;;;;;;20.53;27.61;94575.13;4953393;28;96831;-52
2022/02/05 08:06:11;;;;;;;19.10;14.50;;;;;;;20.77;27.14;94577.34;4960289;28;96912;-48
2022/02/05 08:08:36;;;;;;;21.02;14.52;;;;;;;20.74;27.53;94571.47;4953690;28;99704;-50
2022/02/05 08:11:09;;;;;;;18.33;13.68;;;;;;;20.85;27.48;94565.94;4954293;28;99457;-46
2022/02/05 08:13:35;;;;;;;20.00;14.13;;;;;;;20.83;27.27;94564.78;4954119;28;97701;-47
2022/02/05 08:16:23;;;;;;;19.00;13.70;;;;;;;21.11;27.15;94576.72;4954063;28;96912;-48
2022/02/05 08:18:49;;;;;;;18.10;12.98;;;;;;;21.10;27.56;94564.19;4953636;28;99329;-50
2022/02/05 08:21:14;;;;;;;17.88;12.77;;;;;;;20.94;27.68;94561.97;4953833;28;98221;-49
2022/02/05 08:23:40;;;;;;;19.30;13.73;;;;;;;21.18;27.58;94549.22;4954514;28;96694;-49
2022/02/05 08:26:05;;;;;;;17.33;12.38;;;;;;;21.30;27.62;94545.97;4954095;28;96900;-50
2022/02/05 08:28:31;;;;;;;18.73;13.70;;;;;;;21.45;27.25;94556.84;4953860;28;99230;-50
2022/02/05 08:30:57;;;;;;;19.10;13.55;;;;;;;21.45;26.95;94551.34;4953461;28;99422;-52
2022/02/05 08:33:22;;;;;;;20.42;13.98;;;;;;;21.41;26.91;94561.59;4954322;28;96716;-49
2022/02/05 08:35:51;;;;;;;17.40;13.20;;;;;;;21.44;26.90;94558.03;4953968;28;96908;-47
2022/02/05 08:38:17;;;;;;;17.58;13.40;;;;;;;21.40;26.76;94543.53;4952752;28;99463;-49
2022/02/05 08:40:43;;;;;;;18.52;13.73;;;;;;;21.43;26.71;94548.22;4953735;28;99145;-49
2022/02/05 08:43:08;;;;;;;17.98;13.75;;;;;;;21.42;26.62;94546.66;4953868;28;96726;-48
2022/02/05 08:45:33;;;;;;;19.33;13.50;;;;;;;21.41;26.62;94556.09;4953926;28;96873;-47
2022/02/05 08:47:59;;;;;;;19.98;14.02;;;;;;;21.40;26.44;94554.53;4953856;28;99055;-47
2022/02/05 08:50:26;;;;;;;18.02;13.93;;;;;;;21.38;26.51;94551.41;4953451;28;99037;-47
2022/02/05 08:52:54;;;;;;;21.13;14.88;;;;;;;21.31;26.59;94542.03;4953634;28;97026;-49
2022/02/05 08:55:21;;;;;;;19.35;13.73;;;;;;;21.37;26.34;94556.09;4954176;28;96903;-47
2022/02/05 08:57:46;;;;;;;18.30;13.30;;;;;;;21.33;26.39;94558.91;4953478;28;99276;-48
2022/02/05 09:00:14;;;;;;;20.85;13.85;;;;;;;21.29;26.29;94566.38;4953646;28;99096;-52
2022/02/05 09:08:09;;;;;;;20.45;14.30;;;;;;;21.27;26.24;94566.00;4951338;28;99002;-46
2022/02/05 09:10:53;;;;;;;17.42;12.98;;;;;;;21.24;26.18;94579.75;4953423;28;99422;-51
2022/02/05 09:16:03;;;;;;;20.27;13.98;;;;;;;21.22;26.08;94577.44;4953198;28;96667;-49
2022/02/05 09:18:29;;;;;;;19.00;13.68;;;;;;;21.21;26.01;94573.13;4952914;28;99488;-46
2022/02/05 09:20:55;;;;;;;20.80;13.80;;;;;;;21.18;26.05;94576.69;4954005;28;97985;-45
2022/02/05 09:23:20;;;;;;;17.35;12.93;;;;;;;21.19;26.09;94570.00;4953528;28;96753;-47
2022/02/05 09:25:46;;;;;;;20.80;13.63;;;;;;;21.22;25.95;94566.44;4953636;28;96862;-47
2022/02/05 09:28:11;;;;;;;19.02;13.32;;;;;;;21.24;26.00;94558.59;4952712;28;99404;-46
2022/02/05 09:31:02;;;;;;;19.35;13.68;;;;;;;21.26;25.97;94556.22;4953207;28;99313;-47
2022/02/05 09:33:30;;;;;;;18.67;13.32;;;;;;;21.28;25.91;94553.84;4953380;28;96690;-45
2022/02/05 09:35:55;;;;;;;19.48;12.95;;;;;;;21.27;25.79;94560.53;4953395;28;96948;-49
2022/02/05 09:38:21;;;;;;;20.02;13.48;;;;;;;21.37;25.65;94558.84;4952743;28;99999;-47
2022/02/05 09:40:46;;;;;;;18.42;13.25;;;;;;;21.34;25.68;94551.41;4952704;28;98263;-50
2022/02/05 09:43:12;;;;;;;19.25;13.50;;;;;;;21.39;25.27;94553.72;4953393;28;96637;-45
2022/02/05 09:45:38;;;;;;;16.88;12.18;;;;;;;21.37;25.42;94533.38;4953499;28;96927;-47
2022/02/05 09:48:04;;;;;;;18.55;13.05;;;;;;;21.48;25.42;94537.56;4952882;28;100006;-46
2022/02/05 09:50:31;;;;;;;19.20;13.63;;;;;;;21.53;25.37;94533.56;4952923;28;99383;-46
2022/02/05 09:53:01;;;;;;;19.80;13.30;;;;;;;21.60;25.94;94547.25;4952815;28;96852;-46
2022/02/05 09:55:27;;;;;;;19.15;12.80;;;;;;;21.62;25.77;94533.91;4953192;28;96727;-47
2022/02/05 09:57:52;;;;;;;20.58;13.32;;;;;;;21.72;25.69;94525.94;4952843;28;99450;-50
2022/02/05 10:00:18;;;;;;;16.55;12.93;;;;;;;21.71;25.83;94516.16;4952792;28;97706;-49
2022/02/05 10:02:49;;;;;;;16.48;12.15;;;;;;;21.75;25.74;94516.88;4953113;28;96603;-50
2022/02/05 10:05:21;;;;;;;19.50;13.45;;;;;;;21.84;25.64;94516.38;4953324;28;96749;-47
2022/02/05 10:08:08;;;;;;;19.73;13.23;;;;;;;21.86;25.70;94520.31;4948407;28;99657;-51
2022/02/05 10:10:44;;;;;;;17.77;12.75;;;;;;;21.91;25.81;94517.09;4940554;28;99700;-46
2022/02/05 10:13:16;;;;;;;17.70;12.45;;;;;;;21.96;25.83;94507.59;4951304;28;96765;-49
2022/02/05 10:15:42;;;;;;;19.05;12.55;;;;;;;21.98;25.88;94507.22;4953037;28;96828;-47
2022/02/05 10:18:08;;;;;;;16.52;12.38;;;;;;;22.03;25.85;94501.25;4949782;28;99828;-49
2022/02/05 10:20:39;;;;;;;17.90;12.77;;;;;;;22.05;25.79;94509.88;4946904;28;99631;-49
2022/02/05 10:23:10;;;;;;;18.00;13.02;;;;;;;22.04;25.98;94502.81;4949507;28;97144;-52
2022/02/05 10:25:35;;;;;;;16.60;11.57;;;;;;;22.05;25.76;94509.88;4951114;28;97424;-48
2022/02/05 10:28:01;;;;;;;16.77;12.00;;;;;;;22.08;25.90;94511.78;4951228;28;97826;-48
2022/02/05 10:30:31;;;;;;;17.42;12.57;;;;;;;22.14;25.75;94510.13;4950856;28;99806;-47
2022/02/05 10:33:12;;;;;;;16.90;12.15;;;;;;;22.11;25.79;94497.19;4950964;28;96875;-46
2022/02/05 10:36:09;;;;;;;19.25;10.25;;;;;;;21.87;26.45;94510.06;4946969;28;97107;-51
2022/02/05 10:44:10;;;;;;;15.57;9.87;;;;;;;22.31;26.59;94493.81;4928490;28;96957;-49
2022/02/05 10:46:38;;;;;;;16.58;10.82;;;;;;;22.30;26.96;94497.75;4948632;28;96916;-51
2022/02/05 10:49:04;;;;;;;18.30;11.13;;;;;;;22.19;27.19;94506.91;4950042;28;99440;-51
2022/02/05 10:51:41;;;;;;;15.00;10.88;;;;;;;22.10;27.34;94495.63;4952254;28;99126;-48
2022/02/05 10:54:14;;;;;;;17.52;12.02;;;;;;;22.38;26.61;94510.22;4952954;28;96832;-49
2022/02/05 10:56:56;;;;;;;21.25;15.48;;;;;;;22.18;27.13;94497.09;4959882;28;97291;-50
2022/02/05 10:59:51;;;;;;;21.48;15.63;;;;;;;22.13;27.28;94494.03;4974657;28;100096;-49
2022/02/05 11:05:24;;;;;;;18.00;13.10;;;;;;;22.16;28.24;94494.00;4921648;28;96814;-51
2022/02/05 11:07:49;;;;;;;17.05;12.93;;;;;;;22.26;28.21;94492.31;4951022;28;97022;-47
2022/02/05 16:11:25;;;;;;;7.45;5.60;;;;;;;21.41;27.26;94537.63;5479199;23;98859;-39
2022/02/05 16:13:51;;;;;;;8.73;5.80;;;;;;;21.51;27.02;94544.19;4895993;28;99392;-40
2022/02/05 16:16:18;;;;;;;9.40;5.40;;;;;;;21.45;27.11;94545.84;4896354;28;96801;-41
2022/02/05 16:18:43;;;;;;;7.93;6.30;;;;;;;21.45;27.33;94559.59;4897070;28;97047;-42
2022/02/05 16:21:10;;;;;;;7.43;5.70;;;;;;;21.48;27.16;94554.03;4899406;28;99328;-41
2022/02/05 16:23:35;;;;;;;7.97;5.85;;;;;;;21.40;27.66;94566.28;4900076;28;99307;-41
2022/02/05 16:26:02;;;;;;;8.07;5.32;;;;;;;21.37;28.24;94563.59;4896002;28;96569;-42
2022/02/05 16:28:30;;;;;;;8.50;5.20;;;;;;;21.27;28.36;94574.25;4896136;28;97024;-39
2022/02/05 16:30:58;;;;;;;9.60;5.70;;;;;;;21.45;28.68;94581.56;4897916;28;99577;-43
2022/02/05 16:33:26;;;;;;;7.28;6.15;;;;;;;21.52;28.34;94584.22;4914498;28;98974;-45
2022/02/05 16:36:00;;;;;;;6.40;5.20;;;;;;;21.52;27.99;94584.22;4905582;28;96694;-43
2022/02/05 16:38:30;;;;;;;7.45;5.40;;;;;;;21.50;28.03;94594.84;4896056;28;96843;-43
2022/02/05 16:41:00;;;;;;;7.35;5.38;;;;;;;21.46;27.83;94596.88;4896886;28;99666;-43
2022/02/05 16:43:26;;;;;;;8.45;5.60;;;;;;;21.51;27.94;94601.91;4896214;28;99183;-44
2022/02/05 16:45:53;;;;;;;9.50;5.68;;;;;;;21.47;28.04;94601.19;4897914;28;96735;-45
2022/02/05 16:48:18;;;;;;;8.65;5.82;;;;;;;21.48;28.04;94611.75;4914681;28;96933;-45
2022/02/05 16:50:45;;;;;;;8.80;5.43;;;;;;;21.41;28.28;94591.81;4902137;28;99395;-39
2022/02/05 16:53:11;;;;;;;6.55;4.97;;;;;;;21.42;27.99;94601.59;4895637;28;99210;-40
2022/02/05 16:55:36;;;;;;;6.93;5.53;;;;;;;21.35;28.27;94607.16;4895949;28;96806;-42
2022/02/05 16:58:02;;;;;;;6.90;5.18;;;;;;;21.44;28.02;94610.22;4895813;28;96880;-40
2022/02/05 17:00:28;;;;;;;6.82;5.72;;;;;;;21.39;28.20;94613.41;4902787;28;99690;-40
2022/02/05 17:02:55;;;;;;;6.38;4.65;;;;;;;21.62;28.99;94616.34;4910840;28;99194;-42
2022/02/05 17:05:23;;;;;;;6.22;4.20;;;;;;;21.83;29.99;94625.59;4903406;28;96807;-42
2022/02/05 17:07:56;;;;;;;7.10;4.00;;;;;;;21.91;31.14;94627.09;4896000;28;96956;-41
2022/02/05 17:10:22;;;;;;;5.72;3.75;;;;;;;21.92;31.44;94623.16;4895213;28;99744;-43
2022/02/05 17:12:47;;;;;;;4.40;3.72;;;;;;;21.99;31.90;94627.03;4894314;28;99158;-40
2022/02/05 17:15:13;;;;;;;4.63;3.88;;;;;;;22.08;31.32;94630.03;4901722;28;96766;-42
2022/02/05 17:17:39;;;;;;;5.20;3.78;;;;;;;22.17;31.92;94632.31;4910776;28;96863;-41
2022/02/05 17:20:07;;;;;;;3.90;3.47;;;;;;;22.15;31.74;94643.72;4894812;28;100977;-44
2022/02/05 17:22:32;;;;;;;4.20;3.55;;;;;;;22.22;31.73;94645.63;4895360;28;99254;-42
2022/02/05 17:24:58;;;;;;;4.45;3.40;;;;;;;22.16;31.65;94650.00;4900270;28;96797;-42
2022/02/05 17:27:25;;;;;;;5.20;3.45;;;;;;;22.15;32.48;94646.47;4914691;28;96911;-40
2022/02/05 17:29:50;;;;;;;4.75;3.50;;;;;;;22.14;31.82;94655.91;4913991;28;100220;-41
2022/02/05 17:32:16;;;;;;;3.88;3.40;;;;;;;22.23;31.72;94654.66;4912770;28;99265;-42
2022/02/05 17:34:46;;;;;;;3.85;3.42;;;;;;;22.16;31.70;94659.03;4913814;28;97937;-42
2022/02/05 17:37:11;;;;;;;4.63;3.72;;;;;;;22.08;32.21;94662.28;4914414;28;97002;-41
2022/02/05 17:39:39;;;;;;;4.35;3.35;;;;;;;22.18;31.77;94667.66;4913652;28;99254;-40
2022/02/05 17:42:04;;;;;;;4.63;3.78;;;;;;;22.28;31.43;94676.22;4900469;28;99989;-42
2022/02/05 17:44:30;;;;;;;4.13;3.60;;;;;;;22.24;32.03;94681.75;4895181;28;96708;-41
2022/02/05 17:46:55;;;;;;;5.65;3.47;;;;;;;22.11;31.87;94689.72;4894800;28;96975;-41
2022/02/05 17:49:21;;;;;;;4.43;3.47;;;;;;;22.10;32.28;94688.16;4894397;28;99518;-41
2022/02/05 17:51:47;;;;;;;5.10;3.50;;;;;;;22.10;32.06;94701.91;4904383;28;99370;-40
2022/02/05 17:54:12;;;;;;;5.20;4.18;;;;;;;22.20;31.62;94709.28;4905848;28;96794;-42
2022/02/05 17:56:42;;;;;;;4.13;3.63;;;;;;;22.27;31.85;94707.66;4895458;28;96940;-39
2022/02/05 17:59:10;;;;;;;3.30;3.00;;;;;;;22.07;31.81;94716.50;4894791;28;99387;-40
2022/02/05 18:01:35;;;;;;;3.70;3.40;;;;;;;22.13;32.00;94725.88;4904238;28;99438;-41
2022/02/05 18:04:01;;;;;;;4.32;3.03;;;;;;;22.14;31.93;94726.66;4913116;28;96838;-41
2022/02/05 18:06:34;;;;;;;3.30;3.00;;;;;;;22.16;32.08;94730.56;4899590;28;97038;-44
2022/02/05 18:09:48;;;;;;;4.32;3.30;;;;;;;22.10;32.12;94734.94;4878993;28;99335;-41
2022/02/05 18:12:09;;;;;;;5.77;3.40;;;;;;;21.92;32.36;94732.34;4877544;28;98798;-44
2022/02/05 18:17:00;;;;;;;6.22;3.83;;;;;;;21.89;31.61;94736.69;4917293;28;96876;-41
2022/02/05 18:19:28;;;;;;;6.28;3.90;;;;;;;22.02;31.48;94741.69;4916985;28;99477;-42
2022/02/05 18:21:53;;;;;;;4.82;3.90;;;;;;;22.03;31.60;94737.78;4917153;28;99054;-42
2022/02/05 18:24:19;;;;;;;5.65;4.07;;;;;;;22.03;31.80;94743.28;4904690;28;97034;-42
2022/02/05 18:26:44;;;;;;;4.75;3.92;;;;;;;21.94;31.75;94740.97;4898153;28;96925;-42
2022/02/05 18:29:09;;;;;;;4.13;3.60;;;;;;;21.83;32.14;94745.78;4897160;28;99153;-42
2022/02/05 18:31:37;;;;;;;5.38;3.40;;;;;;;21.81;32.16;94746.19;4899020;28;99236;-43
2022/02/05 18:34:04;;;;;;;7.40;3.60;;;;;;;21.77;31.75;94745.44;4914636;28;96952;-41
2022/02/05 18:36:29;;;;;;;3.95;3.55;;;;;;;21.70;32.04;94742.75;4914769;28;96962;-42
2022/02/05 18:38:54;;;;;;;4.75;3.67;;;;;;;21.68;31.95;94742.34;4903155;28;98441;-41
2022/02/05 18:41:26;;;;;;;4.13;3.47;;;;;;;21.61;31.74;94754.16;4894915;28;99186;-43
2022/02/05 18:43:55;;;;;;;4.50;3.40;;;;;;;21.59;31.86;94754.56;4900920;28;96866;-42
2022/02/05 18:46:22;;;;;;;3.80;3.40;;;;;;;21.50;31.83;94751.47;4916081;28;96934;-42
2022/02/05 18:48:47;;;;;;;4.50;3.35;;;;;;;21.57;31.60;94747.91;4907930;28;99453;-41
2022/02/05 18:51:12;;;;;;;5.47;3.55;;;;;;;21.45;31.59;94749.94;4897715;28;97646;-40
2022/02/05 18:53:38;;;;;;;4.22;3.42;;;;;;;21.44;31.38;94747.63;4898293;28;97483;-41
2022/02/05 18:56:03;;;;;;;4.63;3.65;;;;;;;21.43;31.51;94746.06;4897433;28;97030;-41